Latest Weather Observations for Salmon Gums RS

IDW60801

Issued at 7:02 pm WST Wednesday 10 February 2016 (issued every 30 minutes, with the page automatically refreshed every 10 minutes)

About weather observations | Map of weather stations | Latest weather observations for WA | Other Formats
Station Details ID: 012071 Name: SALMON GUMS RES.STN. Lat: -32.99 Lon: 121.62 Height: 249.0 m
Data from the previous 72 hours. | See also: Recent months at Salmon Gums RS
Date/Time
WST
Temp
°C
App
Temp
°C
Dew
Point
Rel
Hum
%
Delta-T
°C
Wind Press
QNH
hPa
Press
MSL
hPa
Rain
since 9 am
mm
Dir
 
Spd
km/h
Gust
km/h
Spd
kts
Gust
kts
10/07:00pm 31.6 29.6 13.8 34 10.9 SE 17 22 9 12 - - 0.0
10/06:30pm 33.0 29.8 13.1 30 12.1 SE 22 33 12 18 - - 0.0
10/06:00pm 34.3 29.8 12.6 27 13.1 SE 28 37 15 20 - - 0.0
10/05:30pm 36.0 31.2 11.6 23 14.7 SE 28 37 15 20 - - 0.0
10/05:00pm 37.2 32.1 10.5 20 15.9 SSE 28 39 15 21 - - 0.0
10/04:30pm 40.7 37.4 4.5 11 20.0 SSE 11 26 6 14 - - 0.0
10/04:00pm 40.6 38.0 3.1 10 20.3 NE 6 17 3 9 - - 0.0
10/03:30pm 40.4 37.6 2.9 10 20.2 ENE 7 15 4 8 - - 0.0
10/03:00pm 39.9 37.2 3.9 11 19.6 NW 7 17 4 9 - - 0.0
10/02:30pm 39.9 36.2 2.5 10 20.0 WNW 11 22 6 12 - - 0.0
10/02:00pm 39.2 35.4 2.0 10 19.6 NW 11 22 6 12 - - 0.0
10/01:30pm 38.8 33.9 1.7 10 19.5 NNW 17 26 9 14 - - 0.0
10/01:00pm 38.7 36.1 3.0 11 19.1 WNW 6 15 3 8 - - 0.0
10/12:30pm 38.0 34.5 3.7 12 18.5 NE 11 20 6 11 - - 0.0
10/12:00pm 37.8 34.9 4.7 13 18.1 NNW 9 19 5 10 - - 0.0
10/11:30am 38.0 33.8 3.7 12 18.5 N 15 26 8 14 - - 0.0
10/11:00am 36.6 33.9 5.8 15 17.0 NNE 9 20 5 11 - - 0.0
10/10:30am 35.7 33.8 7.7 18 15.8 NNW 7 13 4 7 - - 0.0
10/10:00am 33.9 32.6 9.2 22 14.2 NE 6 9 3 5 - - 0.0
10/09:30am 31.5 31.2 11.3 29 11.9 ENE 4 6 2 3 - - 0.0
10/09:00am 29.4 29.0 11.0 32 10.7 S 4 9 2 5 - - 0.0
10/08:30am 27.9 28.0 12.7 39 9.0 SSE 4 7 2 4 - - 0.0
10/08:00am 25.8 25.9 12.6 44 7.7 S 4 7 2 4 - - 0.0
10/07:30am 24.1 23.5 13.6 52 6.2 S 9 15 5 8 - - 0.0
10/07:00am 22.8 22.6 13.6 56 5.4 S 7 13 4 7 - - 0.0
10/06:30am 21.2 20.3 11.5 54 5.4 SSW 7 11 4 6 - - 0.0
10/06:00am 21.2 20.4 9.8 48 6.2 SSW 4 7 2 4 - - 0.0
10/05:30am 20.5 18.0 9.7 50 5.8 SW 13 20 7 11 - - 0.0
10/05:00am 22.1 20.9 9.6 45 6.8 N 6 9 3 5 - - 0.0
10/04:30am 21.9 20.4 9.1 44 6.9 NNE 7 11 4 6 - - 0.0
10/04:00am 22.4 20.4 8.5 41 7.4 NNE 9 13 5 7 - - 0.0
10/03:30am 22.3 20.1 7.7 39 7.7 NNE 9 13 5 7 - - 0.0
10/03:00am 20.9 18.7 7.9 43 6.8 NE 9 13 5 7 - - 0.0
10/02:30am 20.9 19.5 8.9 46 6.4 NNE 6 7 3 4 - - 0.0
10/02:00am 21.1 19.2 9.0 46 6.5 NNE 9 11 5 6 - - 0.0
10/01:30am 20.8 19.6 9.4 48 6.2 NE 6 7 3 4 - - 0.0
10/01:00am 21.7 20.5 9.6 46 6.6 NE 6 7 3 4 - - 0.0
10/12:30am 22.4 21.2 10.2 46 6.7 ENE 7 11 4 6 - - 0.0
10/12:00am 23.2 21.6 10.3 44 7.2 ENE 9 13 5 7 - - 0.0
 
Date/Time
WST
Temp
°C
App
Temp
°C
Dew
Point
Rel
Hum
%
Delta-T
°C
Wind Press
QNH
hPa
Press
MSL
hPa
Rain
since 9 am
mm
Dir
 
Spd
km/h
Gust
km/h
Spd
kts
Gust
kts
09/11:30pm 23.8 21.9 10.5 43 7.4 E 11 17 6 9 - - 0.0
09/11:00pm 24.9 22.3 10.8 41 8.0 E 15 24 8 13 - - 0.0
09/10:30pm 25.8 22.7 10.4 38 8.7 E 17 22 9 12 - - 0.0
09/10:00pm 25.8 23.3 11.2 40 8.3 E 15 20 8 11 - - 0.0
09/09:30pm 26.8 23.8 10.5 36 9.2 ESE 17 22 9 12 - - 0.0
09/09:00pm 27.5 23.8 7.9 29 10.7 ESE 17 24 9 13 - - 0.0
09/08:30pm 27.8 24.3 7.1 27 11.1 ESE 15 20 8 11 - - 0.0
09/08:00pm 28.6 24.4 5.5 23 12.2 SE 17 22 9 12 - - 0.0
09/07:30pm 29.8 25.1 5.1 21 13.0 SE 19 28 10 15 - - 0.0
09/07:00pm 31.8 26.9 6.8 21 13.7 SE 22 32 12 17 - - 0.0
09/06:30pm 33.6 28.1 7.6 20 14.5 SSE 26 37 14 20 - - 0.0
09/06:18pm 34.6 28.7 7.6 19 15.2 SSE 28 39 15 21 - - 0.0
09/06:00pm 36.4 32.1 1.2 11 18.1 SE 13 20 7 11 - - 0.0
09/05:30pm 37.5 33.0 2.1 11 18.5 S 15 24 8 13 - - 0.0
09/05:00pm 37.5 33.0 2.1 11 18.5 S 15 26 8 14 - - 0.0
09/04:30pm 37.7 33.8 0.9 10 18.9 SSW 11 24 6 13 - - 0.0
09/04:00pm 38.5 34.0 0.0 9 19.6 SSE 13 28 7 15 - - 0.0
09/03:30pm 38.7 34.9 1.6 10 19.4 SSW 11 24 6 13 - - 0.0
09/03:00pm 37.9 34.6 2.4 11 18.7 SW 9 19 5 10 - - 0.0
09/02:30pm 38.2 35.1 3.8 12 18.6 S 9 17 5 9 - - 0.0
09/02:00pm 38.1 35.0 1.2 10 19.1 SW 7 17 4 9 - - 0.0
09/01:30pm 37.3 33.1 1.9 11 18.5 WSW 13 24 7 13 - - 0.0
09/01:00pm 37.2 33.6 3.1 12 18.1 SSE 11 20 6 11 - - 0.0
09/12:30pm 36.6 33.9 3.7 13 17.6 WSW 7 11 4 6 - - 0.0
09/12:00pm 35.2 31.7 3.7 14 16.7 W 11 22 6 12 - - 0.0
09/11:30am 34.6 31.2 4.2 15 16.2 W 11 20 6 11 - - 0.0
09/11:00am 34.1 32.3 8.0 20 14.7 N 7 17 4 9 - - 0.0
09/10:30am 32.7 30.5 9.5 24 13.3 NNW 11 22 6 12 - - 0.0
09/10:00am 31.3 28.7 10.6 28 12.0 NNW 15 20 8 11 - - 0.0
09/09:30am 29.1 26.9 10.7 32 10.6 NNW 13 20 7 11 - - 0.0
09/09:00am 27.6 24.1 10.3 34 9.8 NNW 19 26 10 14 - - 0.0
09/08:30am 26.5 25.1 12.2 41 8.3 N 11 17 6 9 - - 0.0
09/08:00am 24.2 21.7 12.2 47 6.9 N 17 22 9 12 - - 0.0
09/07:30am 22.3 20.3 12.8 55 5.5 NNE 15 22 8 12 - - 0.0
09/07:00am 20.1 18.6 13.1 64 4.0 NNE 13 19 7 10 - - 0.0
09/06:30am 17.7 17.3 13.0 74 2.7 NNE 7 13 4 7 - - 0.0
09/06:00am 14.7 14.7 12.4 86 1.3 NE 4 4 2 2 - - 0.0
09/05:30am 13.7 13.3 11.2 85 1.3 NE 4 6 2 3 - - 0.0
09/05:00am 13.5 12.7 11.0 85 1.3 NE 6 6 3 3 - - 0.0
09/04:30am 13.6 13.1 10.6 82 1.6 ENE 4 6 2 3 - - 0.0
09/04:00am 14.5 13.7 10.9 79 1.9 ENE 6 6 3 3 - - 0.0
09/03:30am 15.5 14.8 11.5 77 2.2 ENE 6 7 3 4 - - 0.0
09/03:00am 16.5 15.8 11.9 74 2.5 NE 7 9 4 5 - - 0.0
09/02:30am 17.1 15.6 12.0 72 2.8 ENE 11 13 6 7 - - 0.0
09/02:00am 17.8 16.4 12.3 70 3.1 ENE 11 15 6 8 - - 0.0
09/01:30am 18.2 16.8 12.2 68 3.4 ENE 11 17 6 9 - - 0.0
09/01:00am 18.5 17.0 12.0 66 3.6 ENE 11 17 6 9 - - 0.0
09/12:30am 19.5 17.8 12.5 64 4.0 ENE 13 19 7 10 - - 0.0
09/12:00am 20.3 18.2 12.5 61 4.4 ENE 15 24 8 13 - - 0.0
 
Date/Time
WST
Temp
°C
App
Temp
°C
Dew
Point
Rel
Hum
%
Delta-T
°C
Wind Press
QNH
hPa
Press
MSL
hPa
Rain
since 9 am
mm
Dir
 
Spd
km/h
Gust
km/h
Spd
kts
Gust
kts
08/11:30pm 20.3 18.9 12.3 60 4.5 E 11 20 6 11 - - 0.0
08/11:00pm 21.5 19.5 12.6 57 5.1 ENE 15 19 8 10 - - 0.0
08/10:30pm 22.4 20.1 12.9 55 5.5 E 17 24 9 13 - - 0.0
08/10:00pm 23.1 20.3 12.7 52 6.0 E 19 24 10 13 - - 0.0
08/09:30pm 24.0 21.5 12.3 48 6.8 E 17 26 9 14 - - 0.0
08/09:00pm 25.2 22.1 11.7 43 7.8 E 19 24 10 13 - - 0.0
08/08:30pm 26.7 22.6 11.6 39 8.7 E 24 35 13 19 - - 0.0
08/08:00pm 27.2 24.1 10.4 35 9.5 SE 17 24 9 13 - - 0.0
08/07:30pm 27.0 24.5 4.7 24 11.5 ESE 7 9 4 5 - - 0.0
08/07:00pm 29.1 26.2 4.6 21 12.7 E 9 11 5 6 - - 0.0
08/06:30pm 31.8 28.0 3.8 17 14.6 E 13 17 7 9 - - 0.0
08/06:00pm 33.1 29.1 3.0 15 15.6 ESE 13 19 7 10 - - 0.0
08/05:30pm 33.9 30.1 3.7 15 15.9 ESE 13 20 7 11 - - 0.0
08/05:00pm 34.2 29.6 3.9 15 16.0 E 17 26 9 14 - - 0.0
08/04:30pm 34.4 30.4 5.0 16 15.8 E 15 30 8 16 - - 0.0
08/04:00pm 34.5 31.1 5.9 17 15.6 ESE 13 24 7 13 - - 0.0
08/03:30pm 34.0 29.6 4.6 16 15.7 E 17 30 9 16 - - 0.0
08/03:00pm 35.1 30.7 4.6 15 16.4 SE 17 28 9 15 - - 0.0
08/02:30pm 34.9 30.4 6.2 17 15.8 E 19 32 10 17 - - 0.0
08/02:00pm 33.9 30.2 6.3 18 15.1 SE 15 24 8 13 - - 0.0
08/01:30pm 34.6 31.4 6.8 18 15.4 E 13 26 7 14 - - 0.0
08/01:00pm 33.2 29.3 7.2 20 14.4 ENE 17 32 9 17 - - 0.0
08/12:30pm 33.0 29.1 7.1 20 14.3 E 17 26 9 14 - - 0.0
08/12:00pm 32.5 29.6 6.7 20 14.1 E 11 28 6 15 - - 0.0
08/11:30am 31.3 28.4 8.3 24 12.9 ENE 13 20 7 11 - - 0.0
08/11:00am 30.2 27.4 8.6 26 12.1 ENE 13 22 7 12 - - 0.0
08/10:30am 29.5 26.8 9.1 28 11.5 NE 13 22 7 12 - - 0.0
08/10:00am 28.8 25.6 10.0 31 10.7 NE 17 26 9 14 - - 0.0
08/09:30am 27.8 24.0 9.1 31 10.4 NE 19 26 10 14 - - 0.0
08/09:00am 26.3 23.3 10.5 37 8.9 NNE 17 22 9 12 - - 0.0
08/08:30am 24.4 21.7 11.7 45 7.3 NNE 17 26 9 14 - - 0.0
08/08:00am 22.6 20.5 12.3 52 5.9 NNE 15 20 8 11 - - 0.0
08/07:30am 20.8 18.5 13.0 61 4.5 NE 17 24 9 13 - - 0.0
08/07:00am 19.1 17.3 13.3 69 3.3 NE 15 20 8 11 - - 0.0
08/06:30am 17.8 16.8 13.5 76 2.5 NE 11 17 6 9 - - 0.0
08/06:00am 16.2 15.8 13.1 82 1.7 NE 7 11 4 6 - - 0.0
08/05:30am 15.4 14.9 12.7 84 1.5 NE 7 9 4 5 - - 0.0
08/05:00am 15.5 15.0 12.6 83 1.6 ENE 7 11 4 6 - - 0.0
08/04:30am 15.9 15.4 12.6 81 1.8 ENE 7 13 4 7 - - 0.0
08/04:00am 16.2 15.7 12.7 80 2.0 ENE 7 11 4 6 - - 0.0
08/03:30am 16.9 15.7 12.8 77 2.3 ENE 11 13 6 7 - - 0.0
08/03:00am 17.4 16.3 13.1 76 2.4 ENE 11 15 6 8 - - 0.0
08/02:30am 18.0 17.0 13.3 74 2.7 ENE 11 17 6 9 - - 0.0
08/02:00am 18.3 17.2 13.2 72 2.9 ENE 11 15 6 8 - - 0.0
08/01:30am 18.9 17.5 13.3 70 3.2 ENE 13 20 7 11 - - 0.0
08/01:00am 19.3 17.9 13.3 68 3.4 ENE 13 19 7 10 - - 0.0
08/12:30am 20.1 17.9 13.3 65 3.9 ENE 17 22 9 12 - - 0.0
08/12:00am 20.6 19.1 13.1 62 4.3 ENE 13 17 7 9 - - 0.0
 
Date/Time
WST
Temp
°C
App
Temp
°C
Dew
Point
Rel
Hum
%
Delta-T
°C
Wind Press
QNH
hPa
Press
MSL
hPa
Rain
since 9 am
mm
Dir
 
Spd
km/h
Gust
km/h
Spd
kts
Gust
kts
07/11:30pm 21.4 20.0 13.3 60 4.7 ENE 13 19 7 10 - - 0.0
07/11:00pm 21.8 20.3 13.2 58 5.0 E 13 17 7 9 - - 0.0
07/10:30pm 22.9 20.6 13.1 54 5.7 E 17 24 9 13 - - 0.0
07/10:00pm 23.5 21.5 12.8 51 6.2 E 15 20 8 11 - - 0.0
07/09:30pm 24.6 22.3 12.9 48 6.8 E 17 30 9 16 - - 0.0
07/09:00pm 25.8 23.5 13.0 45 7.5 E 17 22 9 12 - - 0.0
07/08:30pm 26.9 23.9 12.5 40 8.4 ESE 20 30 11 16 - - 0.0
07/08:00pm 27.2 24.7 12.4 40 8.7 SE 17 24 9 13 - - 0.0
07/07:30pm 28.2 25.1 12.1 37 9.4 SE 20 30 11 16 - - 0.0

Other Formats:

Comma delimited format used in spreadsheet applications
http://www.bom.gov.au/fwo/IDW60801/IDW60801.95639.axf

JavaScript Object Notation format (JSON) in row-major order
http://www.bom.gov.au/fwo/IDW60801/IDW60801.95639.json